sensor_id;sensor_type;location;lat;lon;timestamp;P1;durP1;ratioP1;P2;durP2;ratioP2
47715;SDS011;33476;50.984;3.538;2023-12-07T00:00:27;27.75;;;8.20;;
47715;SDS011;33476;50.984;3.538;2023-12-07T00:02:53;41.00;;;8.80;;
47715;SDS011;33476;50.984;3.538;2023-12-07T00:05:18;31.95;;;8.65;;
47715;SDS011;33476;50.984;3.538;2023-12-07T00:07:43;25.90;;;7.45;;
47715;SDS011;33476;50.984;3.538;2023-12-07T00:10:09;14.82;;;7.15;;
47715;SDS011;33476;50.984;3.538;2023-12-07T00:12:34;27.30;;;8.25;;
47715;SDS011;33476;50.984;3.538;2023-12-07T00:15:00;36.35;;;8.73;;
47715;SDS011;33476;50.984;3.538;2023-12-07T00:17:25;21.83;;;7.78;;
47715;SDS011;33476;50.984;3.538;2023-12-07T00:19:50;34.67;;;9.70;;
47715;SDS011;33476;50.984;3.538;2023-12-07T00:22:18;34.45;;;8.60;;
47715;SDS011;33476;50.984;3.538;2023-12-07T00:24:44;25.67;;;9.13;;
47715;SDS011;33476;50.984;3.538;2023-12-07T00:27:10;18.90;;;8.35;;
47715;SDS011;33476;50.984;3.538;2023-12-07T00:29:36;22.13;;;8.32;;
47715;SDS011;33476;50.984;3.538;2023-12-07T00:32:02;26.15;;;8.80;;
47715;SDS011;33476;50.984;3.538;2023-12-07T00:34:28;49.35;;;10.98;;
47715;SDS011;33476;50.984;3.538;2023-12-07T00:36:53;27.90;;;9.43;;
47715;SDS011;33476;50.984;3.538;2023-12-07T00:39:18;23.35;;;9.35;;
47715;SDS011;33476;50.984;3.538;2023-12-07T00:41:44;26.40;;;9.50;;
47715;SDS011;33476;50.984;3.538;2023-12-07T00:44:10;33.05;;;10.02;;
47715;SDS011;33476;50.984;3.538;2023-12-07T00:46:35;36.60;;;10.57;;
47715;SDS011;33476;50.984;3.538;2023-12-07T00:49:00;39.03;;;9.63;;
47715;SDS011;33476;50.984;3.538;2023-12-07T00:51:26;38.55;;;10.73;;
47715;SDS011;33476;50.984;3.538;2023-12-07T00:53:51;28.58;;;8.60;;
47715;SDS011;33476;50.984;3.538;2023-12-07T00:56:16;26.60;;;9.23;;
47715;SDS011;33476;50.984;3.538;2023-12-07T00:58:42;42.70;;;10.10;;
47715;SDS011;33476;50.984;3.538;2023-12-07T01:01:07;23.27;;;8.82;;
47715;SDS011;33476;50.984;3.538;2023-12-07T01:03:33;27.10;;;9.48;;
47715;SDS011;33476;50.984;3.538;2023-12-07T01:05:58;50.00;;;10.20;;
47715;SDS011;33476;50.984;3.538;2023-12-07T01:08:24;29.45;;;9.50;;
47715;SDS011;33476;50.984;3.538;2023-12-07T01:10:49;29.40;;;10.38;;
47715;SDS011;33476;50.984;3.538;2023-12-07T01:13:14;43.65;;;10.57;;
47715;SDS011;33476;50.984;3.538;2023-12-07T01:15:40;42.50;;;10.57;;
47715;SDS011;33476;50.984;3.538;2023-12-07T01:18:05;38.67;;;10.88;;
47715;SDS011;33476;50.984;3.538;2023-12-07T01:20:30;25.20;;;9.68;;
47715;SDS011;33476;50.984;3.538;2023-12-07T01:22:56;34.25;;;10.73;;
47715;SDS011;33476;50.984;3.538;2023-12-07T01:25:21;30.85;;;11.77;;
47715;SDS011;33476;50.984;3.538;2023-12-07T01:27:47;33.20;;;11.30;;
47715;SDS011;33476;50.984;3.538;2023-12-07T01:30:13;27.52;;;11.10;;
47715;SDS011;33476;50.984;3.538;2023-12-07T01:32:39;37.03;;;11.75;;
47715;SDS011;33476;50.984;3.538;2023-12-07T01:35:04;30.67;;;12.02;;
47715;SDS011;33476;50.984;3.538;2023-12-07T01:37:30;33.83;;;12.35;;
47715;SDS011;33476;50.984;3.538;2023-12-07T01:39:55;33.47;;;12.32;;
47715;SDS011;33476;50.984;3.538;2023-12-07T01:42:21;36.67;;;11.68;;
47715;SDS011;33476;50.984;3.538;2023-12-07T01:44:46;30.58;;;12.02;;
47715;SDS011;33476;50.984;3.538;2023-12-07T01:47:12;33.90;;;13.18;;
47715;SDS011;33476;50.984;3.538;2023-12-07T01:49:37;34.50;;;12.88;;
47715;SDS011;33476;50.984;3.538;2023-12-07T01:52:04;35.45;;;14.07;;
47715;SDS011;33476;50.984;3.538;2023-12-07T01:54:31;30.40;;;12.88;;
47715;SDS011;33476;50.984;3.538;2023-12-07T01:56:57;36.47;;;13.93;;
47715;SDS011;33476;50.984;3.538;2023-12-07T01:59:22;36.00;;;13.63;;
47715;SDS011;33476;50.984;3.538;2023-12-07T02:01:49;33.92;;;13.23;;
47715;SDS011;33476;50.984;3.538;2023-12-07T02:04:15;31.55;;;12.48;;
47715;SDS011;33476;50.984;3.538;2023-12-07T02:06:41;34.42;;;12.57;;
47715;SDS011;33476;50.984;3.538;2023-12-07T02:09:07;34.88;;;13.15;;
47715;SDS011;33476;50.984;3.538;2023-12-07T02:11:32;33.92;;;12.80;;
47715;SDS011;33476;50.984;3.538;2023-12-07T02:13:57;33.72;;;13.52;;
47715;SDS011;33476;50.984;3.538;2023-12-07T02:16:29;33.97;;;13.25;;
47715;SDS011;33476;50.984;3.538;2023-12-07T02:21:44;31.30;;;12.00;;
47715;SDS011;33476;50.984;3.538;2023-12-07T02:24:16;32.30;;;12.02;;
47715;SDS011;33476;50.984;3.538;2023-12-07T02:26:46;35.08;;;12.75;;
47715;SDS011;33476;50.984;3.538;2023-12-07T02:29:12;31.80;;;12.63;;
47715;SDS011;33476;50.984;3.538;2023-12-07T02:31:37;29.88;;;11.75;;
47715;SDS011;33476;50.984;3.538;2023-12-07T02:34:03;26.42;;;10.73;;
47715;SDS011;33476;50.984;3.538;2023-12-07T02:36:28;28.98;;;12.00;;
47715;SDS011;33476;50.984;3.538;2023-12-07T02:38:56;34.78;;;12.95;;
47715;SDS011;33476;50.984;3.538;2023-12-07T02:41:26;30.40;;;12.77;;
47715;SDS011;33476;50.984;3.538;2023-12-07T02:43:52;34.50;;;12.70;;
47715;SDS011;33476;50.984;3.538;2023-12-07T02:46:18;34.53;;;13.05;;
47715;SDS011;33476;50.984;3.538;2023-12-07T02:48:43;30.38;;;11.60;;
47715;SDS011;33476;50.984;3.538;2023-12-07T02:51:09;30.77;;;12.90;;
47715;SDS011;33476;50.984;3.538;2023-12-07T02:53:34;33.33;;;12.07;;
47715;SDS011;33476;50.984;3.538;2023-12-07T02:55:59;28.33;;;11.55;;
47715;SDS011;33476;50.984;3.538;2023-12-07T02:58:25;32.33;;;12.98;;
47715;SDS011;33476;50.984;3.538;2023-12-07T03:00:50;31.65;;;11.80;;
47715;SDS011;33476;50.984;3.538;2023-12-07T03:03:15;32.63;;;13.27;;
47715;SDS011;33476;50.984;3.538;2023-12-07T03:05:41;34.40;;;13.55;;
47715;SDS011;33476;50.984;3.538;2023-12-07T03:08:06;33.53;;;13.48;;
47715;SDS011;33476;50.984;3.538;2023-12-07T03:10:31;30.83;;;12.18;;
47715;SDS011;33476;50.984;3.538;2023-12-07T03:12:57;29.25;;;12.50;;
47715;SDS011;33476;50.984;3.538;2023-12-07T03:15:22;32.28;;;12.68;;
47715;SDS011;33476;50.984;3.538;2023-12-07T03:17:48;34.30;;;12.93;;
47715;SDS011;33476;50.984;3.538;2023-12-07T03:20:14;31.23;;;12.73;;
47715;SDS011;33476;50.984;3.538;2023-12-07T03:22:40;33.60;;;13.02;;
47715;SDS011;33476;50.984;3.538;2023-12-07T03:25:05;32.10;;;13.10;;
47715;SDS011;33476;50.984;3.538;2023-12-07T03:27:31;30.80;;;12.30;;
47715;SDS011;33476;50.984;3.538;2023-12-07T03:29:57;32.03;;;11.77;;
47715;SDS011;33476;50.984;3.538;2023-12-07T03:32:22;35.90;;;12.50;;
47715;SDS011;33476;50.984;3.538;2023-12-07T03:34:48;36.63;;;13.45;;
47715;SDS011;33476;50.984;3.538;2023-12-07T03:37:13;35.25;;;12.15;;
47715;SDS011;33476;50.984;3.538;2023-12-07T03:39:38;29.48;;;12.13;;
47715;SDS011;33476;50.984;3.538;2023-12-07T03:42:04;30.33;;;11.23;;
47715;SDS011;33476;50.984;3.538;2023-12-07T03:44:29;31.63;;;11.68;;
47715;SDS011;33476;50.984;3.538;2023-12-07T03:46:55;31.05;;;12.38;;
47715;SDS011;33476;50.984;3.538;2023-12-07T03:49:21;38.50;;;13.43;;
47715;SDS011;33476;50.984;3.538;2023-12-07T03:51:46;33.03;;;12.40;;
47715;SDS011;33476;50.984;3.538;2023-12-07T03:54:12;26.90;;;11.32;;
47715;SDS011;33476;50.984;3.538;2023-12-07T03:56:37;33.08;;;11.82;;
47715;SDS011;33476;50.984;3.538;2023-12-07T03:59:03;28.00;;;11.05;;
47715;SDS011;33476;50.984;3.538;2023-12-07T04:01:28;27.10;;;10.85;;
47715;SDS011;33476;50.984;3.538;2023-12-07T04:03:55;27.05;;;11.15;;
47715;SDS011;33476;50.984;3.538;2023-12-07T04:06:24;28.05;;;11.38;;
47715;SDS011;33476;50.984;3.538;2023-12-07T04:08:50;27.60;;;10.93;;
47715;SDS011;33476;50.984;3.538;2023-12-07T04:11:15;24.83;;;11.57;;
47715;SDS011;33476;50.984;3.538;2023-12-07T04:13:42;28.30;;;11.85;;
47715;SDS011;33476;50.984;3.538;2023-12-07T04:16:08;29.08;;;12.02;;
47715;SDS011;33476;50.984;3.538;2023-12-07T04:18:34;24.70;;;10.75;;
47715;SDS011;33476;50.984;3.538;2023-12-07T04:21:00;38.58;;;12.25;;
47715;SDS011;33476;50.984;3.538;2023-12-07T04:23:26;25.88;;;11.52;;
47715;SDS011;33476;50.984;3.538;2023-12-07T04:25:51;29.05;;;11.20;;
47715;SDS011;33476;50.984;3.538;2023-12-07T04:28:17;28.08;;;11.10;;
47715;SDS011;33476;50.984;3.538;2023-12-07T04:30:42;26.30;;;11.55;;
47715;SDS011;33476;50.984;3.538;2023-12-07T04:33:07;27.25;;;11.30;;
47715;SDS011;33476;50.984;3.538;2023-12-07T04:35:33;28.02;;;11.25;;
47715;SDS011;33476;50.984;3.538;2023-12-07T04:37:59;28.77;;;11.60;;
47715;SDS011;33476;50.984;3.538;2023-12-07T04:40:25;27.65;;;11.23;;
47715;SDS011;33476;50.984;3.538;2023-12-07T04:42:51;30.80;;;11.88;;
47715;SDS011;33476;50.984;3.538;2023-12-07T04:45:16;31.05;;;12.38;;
47715;SDS011;33476;50.984;3.538;2023-12-07T04:47:41;34.42;;;12.73;;
47715;SDS011;33476;50.984;3.538;2023-12-07T04:50:07;31.60;;;11.63;;
47715;SDS011;33476;50.984;3.538;2023-12-07T04:52:33;27.15;;;11.52;;
47715;SDS011;33476;50.984;3.538;2023-12-07T04:54:59;29.65;;;12.15;;
47715;SDS011;33476;50.984;3.538;2023-12-07T04:57:24;27.52;;;12.02;;
47715;SDS011;33476;50.984;3.538;2023-12-07T04:59:49;30.05;;;13.02;;
47715;SDS011;33476;50.984;3.538;2023-12-07T05:02:18;28.60;;;12.68;;
47715;SDS011;33476;50.984;3.538;2023-12-07T05:04:43;32.80;;;12.90;;
47715;SDS011;33476;50.984;3.538;2023-12-07T05:07:10;28.73;;;13.23;;
47715;SDS011;33476;50.984;3.538;2023-12-07T05:09:36;31.90;;;13.30;;
47715;SDS011;33476;50.984;3.538;2023-12-07T05:12:03;34.72;;;13.82;;
47715;SDS011;33476;50.984;3.538;2023-12-07T05:14:30;32.92;;;13.70;;
47715;SDS011;33476;50.984;3.538;2023-12-07T05:16:56;31.08;;;13.23;;
47715;SDS011;33476;50.984;3.538;2023-12-07T05:19:22;27.08;;;13.68;;
47715;SDS011;33476;50.984;3.538;2023-12-07T05:21:50;29.23;;;14.02;;
47715;SDS011;33476;50.984;3.538;2023-12-07T05:24:16;37.38;;;14.25;;
47715;SDS011;33476;50.984;3.538;2023-12-07T05:26:42;26.35;;;13.18;;
47715;SDS011;33476;50.984;3.538;2023-12-07T05:29:10;31.05;;;14.27;;
47715;SDS011;33476;50.984;3.538;2023-12-07T05:31:36;31.63;;;13.55;;
47715;SDS011;33476;50.984;3.538;2023-12-07T05:34:02;29.38;;;13.93;;
47715;SDS011;33476;50.984;3.538;2023-12-07T05:36:28;26.52;;;12.43;;
47715;SDS011;33476;50.984;3.538;2023-12-07T05:38:54;24.77;;;12.80;;
47715;SDS011;33476;50.984;3.538;2023-12-07T05:41:19;25.83;;;12.65;;
47715;SDS011;33476;50.984;3.538;2023-12-07T05:43:45;26.20;;;12.75;;
47715;SDS011;33476;50.984;3.538;2023-12-07T05:46:10;23.02;;;12.13;;
47715;SDS011;33476;50.984;3.538;2023-12-07T05:48:35;27.90;;;12.30;;
47715;SDS011;33476;50.984;3.538;2023-12-07T05:51:02;29.40;;;12.50;;
47715;SDS011;33476;50.984;3.538;2023-12-07T05:53:27;20.75;;;11.18;;
47715;SDS011;33476;50.984;3.538;2023-12-07T05:55:54;24.30;;;11.95;;
47715;SDS011;33476;50.984;3.538;2023-12-07T05:58:19;22.13;;;11.45;;
47715;SDS011;33476;50.984;3.538;2023-12-07T06:00:45;23.98;;;11.25;;
47715;SDS011;33476;50.984;3.538;2023-12-07T06:03:12;23.02;;;11.07;;
47715;SDS011;33476;50.984;3.538;2023-12-07T06:05:38;25.10;;;10.93;;
47715;SDS011;33476;50.984;3.538;2023-12-07T06:08:04;26.67;;;11.35;;
47715;SDS011;33476;50.984;3.538;2023-12-07T06:10:30;22.08;;;11.13;;
47715;SDS011;33476;50.984;3.538;2023-12-07T06:12:55;24.75;;;11.18;;
47715;SDS011;33476;50.984;3.538;2023-12-07T06:15:23;21.08;;;10.50;;
47715;SDS011;33476;50.984;3.538;2023-12-07T06:17:48;27.20;;;10.55;;
47715;SDS011;33476;50.984;3.538;2023-12-07T06:20:14;25.13;;;11.23;;
47715;SDS011;33476;50.984;3.538;2023-12-07T06:22:39;20.25;;;10.43;;
47715;SDS011;33476;50.984;3.538;2023-12-07T06:25:05;21.75;;;10.65;;
47715;SDS011;33476;50.984;3.538;2023-12-07T06:27:31;23.48;;;10.55;;
47715;SDS011;33476;50.984;3.538;2023-12-07T06:29:57;21.20;;;11.20;;
47715;SDS011;33476;50.984;3.538;2023-12-07T06:32:22;20.08;;;10.00;;
47715;SDS011;33476;50.984;3.538;2023-12-07T06:34:48;17.95;;;9.60;;
47715;SDS011;33476;50.984;3.538;2023-12-07T06:37:13;20.73;;;10.77;;
47715;SDS011;33476;50.984;3.538;2023-12-07T06:39:38;19.98;;;10.32;;
47715;SDS011;33476;50.984;3.538;2023-12-07T06:42:04;20.48;;;10.00;;
47715;SDS011;33476;50.984;3.538;2023-12-07T06:44:29;19.63;;;10.38;;
47715;SDS011;33476;50.984;3.538;2023-12-07T06:46:54;26.23;;;10.98;;
47715;SDS011;33476;50.984;3.538;2023-12-07T06:49:20;21.30;;;9.63;;
47715;SDS011;33476;50.984;3.538;2023-12-07T06:51:45;24.63;;;10.73;;
47715;SDS011;33476;50.984;3.538;2023-12-07T06:54:11;24.08;;;9.80;;
47715;SDS011;33476;50.984;3.538;2023-12-07T06:56:36;24.90;;;10.82;;
47715;SDS011;33476;50.984;3.538;2023-12-07T06:59:01;23.05;;;10.02;;
47715;SDS011;33476;50.984;3.538;2023-12-07T07:01:27;21.17;;;10.50;;
47715;SDS011;33476;50.984;3.538;2023-12-07T07:03:52;21.83;;;9.65;;
47715;SDS011;33476;50.984;3.538;2023-12-07T07:06:17;23.40;;;10.05;;
47715;SDS011;33476;50.984;3.538;2023-12-07T07:08:43;24.65;;;10.05;;
47715;SDS011;33476;50.984;3.538;2023-12-07T07:11:12;22.52;;;9.45;;
47715;SDS011;33476;50.984;3.538;2023-12-07T07:13:39;25.27;;;10.73;;
47715;SDS011;33476;50.984;3.538;2023-12-07T07:16:04;23.48;;;10.63;;
47715;SDS011;33476;50.984;3.538;2023-12-07T07:18:30;21.60;;;9.18;;
47715;SDS011;33476;50.984;3.538;2023-12-07T07:20:55;23.63;;;9.43;;
47715;SDS011;33476;50.984;3.538;2023-12-07T07:23:20;23.02;;;10.23;;
47715;SDS011;33476;50.984;3.538;2023-12-07T07:25:46;21.92;;;9.57;;
47715;SDS011;33476;50.984;3.538;2023-12-07T07:28:11;24.30;;;9.93;;
47715;SDS011;33476;50.984;3.538;2023-12-07T07:30:36;22.88;;;10.13;;
47715;SDS011;33476;50.984;3.538;2023-12-07T07:33:02;20.08;;;9.68;;
47715;SDS011;33476;50.984;3.538;2023-12-07T07:35:27;21.27;;;9.35;;
47715;SDS011;33476;50.984;3.538;2023-12-07T07:37:53;23.92;;;9.77;;
47715;SDS011;33476;50.984;3.538;2023-12-07T07:40:19;26.63;;;9.68;;
47715;SDS011;33476;50.984;3.538;2023-12-07T07:42:44;24.45;;;10.63;;
47715;SDS011;33476;50.984;3.538;2023-12-07T07:45:10;23.35;;;10.05;;
47715;SDS011;33476;50.984;3.538;2023-12-07T07:47:35;25.40;;;10.70;;
47715;SDS011;33476;50.984;3.538;2023-12-07T07:50:01;20.33;;;10.10;;
47715;SDS011;33476;50.984;3.538;2023-12-07T07:52:33;23.77;;;10.20;;
47715;SDS011;33476;50.984;3.538;2023-12-07T07:55:00;18.42;;;7.35;;
47715;SDS011;33476;50.984;3.538;2023-12-07T07:57:28;24.55;;;9.93;;
47715;SDS011;33476;50.984;3.538;2023-12-07T07:59:53;22.85;;;9.25;;
47715;SDS011;33476;50.984;3.538;2023-12-07T08:02:19;24.20;;;9.40;;
47715;SDS011;33476;50.984;3.538;2023-12-07T08:04:46;24.98;;;9.60;;
47715;SDS011;33476;50.984;3.538;2023-12-07T08:07:11;22.52;;;10.25;;
47715;SDS011;33476;50.984;3.538;2023-12-07T08:09:37;22.30;;;8.95;;
47715;SDS011;33476;50.984;3.538;2023-12-07T08:12:02;24.20;;;9.95;;
47715;SDS011;33476;50.984;3.538;2023-12-07T08:14:28;20.90;;;9.32;;
47715;SDS011;33476;50.984;3.538;2023-12-07T08:16:53;24.65;;;9.38;;
47715;SDS011;33476;50.984;3.538;2023-12-07T08:19:18;21.98;;;8.73;;
47715;SDS011;33476;50.984;3.538;2023-12-07T08:21:44;27.02;;;9.45;;
47715;SDS011;33476;50.984;3.538;2023-12-07T08:24:09;23.05;;;9.55;;
47715;SDS011;33476;50.984;3.538;2023-12-07T08:26:36;19.10;;;9.07;;
47715;SDS011;33476;50.984;3.538;2023-12-07T08:29:01;27.90;;;10.30;;
47715;SDS011;33476;50.984;3.538;2023-12-07T08:31:26;24.20;;;9.63;;
47715;SDS011;33476;50.984;3.538;2023-12-07T08:33:52;21.77;;;9.57;;
47715;SDS011;33476;50.984;3.538;2023-12-07T08:36:17;20.70;;;9.30;;
47715;SDS011;33476;50.984;3.538;2023-12-07T08:38:43;22.42;;;8.50;;
47715;SDS011;33476;50.984;3.538;2023-12-07T08:41:08;22.67;;;9.10;;
47715;SDS011;33476;50.984;3.538;2023-12-07T08:43:33;18.95;;;8.85;;
47715;SDS011;33476;50.984;3.538;2023-12-07T08:45:59;27.08;;;9.27;;
47715;SDS011;33476;50.984;3.538;2023-12-07T08:48:24;25.50;;;9.35;;
47715;SDS011;33476;50.984;3.538;2023-12-07T08:50:49;17.88;;;8.57;;
47715;SDS011;33476;50.984;3.538;2023-12-07T08:53:16;21.48;;;8.80;;
47715;SDS011;33476;50.984;3.538;2023-12-07T08:55:41;22.02;;;9.10;;
47715;SDS011;33476;50.984;3.538;2023-12-07T08:58:07;30.00;;;8.85;;
47715;SDS011;33476;50.984;3.538;2023-12-07T09:00:32;18.17;;;8.68;;
47715;SDS011;33476;50.984;3.538;2023-12-07T09:02:58;24.45;;;8.65;;
47715;SDS011;33476;50.984;3.538;2023-12-07T09:05:23;18.98;;;8.55;;
47715;SDS011;33476;50.984;3.538;2023-12-07T09:07:49;20.30;;;8.98;;
47715;SDS011;33476;50.984;3.538;2023-12-07T09:10:15;19.00;;;8.75;;
47715;SDS011;33476;50.984;3.538;2023-12-07T09:12:40;18.38;;;8.35;;
47715;SDS011;33476;50.984;3.538;2023-12-07T09:15:06;24.05;;;8.82;;
47715;SDS011;33476;50.984;3.538;2023-12-07T09:17:32;22.65;;;8.52;;
47715;SDS011;33476;50.984;3.538;2023-12-07T09:19:58;16.15;;;8.20;;
47715;SDS011;33476;50.984;3.538;2023-12-07T09:22:23;20.92;;;8.18;;
47715;SDS011;33476;50.984;3.538;2023-12-07T09:24:48;19.25;;;8.93;;
47715;SDS011;33476;50.984;3.538;2023-12-07T09:27:14;18.58;;;8.65;;
47715;SDS011;33476;50.984;3.538;2023-12-07T09:29:39;19.42;;;9.43;;
47715;SDS011;33476;50.984;3.538;2023-12-07T09:32:05;19.42;;;8.27;;
47715;SDS011;33476;50.984;3.538;2023-12-07T09:34:32;19.98;;;8.93;;
47715;SDS011;33476;50.984;3.538;2023-12-07T09:37:07;18.33;;;9.05;;
47715;SDS011;33476;50.984;3.538;2023-12-07T09:39:33;16.98;;;7.53;;
47715;SDS011;33476;50.984;3.538;2023-12-07T09:41:59;17.25;;;7.28;;
47715;SDS011;33476;50.984;3.538;2023-12-07T09:44:25;16.05;;;7.47;;
47715;SDS011;33476;50.984;3.538;2023-12-07T09:46:51;18.58;;;8.10;;
47715;SDS011;33476;50.984;3.538;2023-12-07T09:49:17;18.67;;;7.57;;
47715;SDS011;33476;50.984;3.538;2023-12-07T09:51:44;18.10;;;7.38;;
47715;SDS011;33476;50.984;3.538;2023-12-07T09:54:11;18.17;;;8.15;;
47715;SDS011;33476;50.984;3.538;2023-12-07T09:56:37;13.73;;;7.30;;
47715;SDS011;33476;50.984;3.538;2023-12-07T09:59:02;18.13;;;7.18;;
47715;SDS011;33476;50.984;3.538;2023-12-07T10:01:29;17.20;;;7.10;;
47715;SDS011;33476;50.984;3.538;2023-12-07T10:04:16;15.18;;;7.57;;
47715;SDS011;33476;50.984;3.538;2023-12-07T10:06:43;14.50;;;6.65;;
47715;SDS011;33476;50.984;3.538;2023-12-07T10:09:10;15.80;;;6.68;;
47715;SDS011;33476;50.984;3.538;2023-12-07T10:11:36;19.77;;;7.47;;
47715;SDS011;33476;50.984;3.538;2023-12-07T10:14:01;15.45;;;6.97;;
47715;SDS011;33476;50.984;3.538;2023-12-07T10:16:27;17.35;;;7.25;;
47715;SDS011;33476;50.984;3.538;2023-12-07T10:18:52;12.13;;;6.45;;
47715;SDS011;33476;50.984;3.538;2023-12-07T10:21:30;15.48;;;6.97;;
47715;SDS011;33476;50.984;3.538;2023-12-07T10:23:57;10.57;;;6.03;;
47715;SDS011;33476;50.984;3.538;2023-12-07T10:26:22;16.83;;;6.05;;
47715;SDS011;33476;50.984;3.538;2023-12-07T10:28:50;15.18;;;7.20;;
47715;SDS011;33476;50.984;3.538;2023-12-07T10:31:19;15.85;;;6.95;;
47715;SDS011;33476;50.984;3.538;2023-12-07T10:33:48;11.80;;;6.22;;
47715;SDS011;33476;50.984;3.538;2023-12-07T10:36:14;12.25;;;6.60;;
47715;SDS011;33476;50.984;3.538;2023-12-07T10:38:39;18.10;;;6.75;;
47715;SDS011;33476;50.984;3.538;2023-12-07T10:41:06;13.40;;;6.35;;
47715;SDS011;33476;50.984;3.538;2023-12-07T10:43:36;9.90;;;5.93;;
47715;SDS011;33476;50.984;3.538;2023-12-07T10:46:04;15.60;;;6.68;;
47715;SDS011;33476;50.984;3.538;2023-12-07T10:48:31;13.35;;;6.28;;
47715;SDS011;33476;50.984;3.538;2023-12-07T10:50:57;19.80;;;6.68;;
47715;SDS011;33476;50.984;3.538;2023-12-07T10:53:29;16.05;;;6.63;;
47715;SDS011;33476;50.984;3.538;2023-12-07T10:56:02;13.52;;;6.05;;
47715;SDS011;33476;50.984;3.538;2023-12-07T10:58:30;14.93;;;6.72;;
47715;SDS011;33476;50.984;3.538;2023-12-07T11:00:59;14.77;;;6.13;;
47715;SDS011;33476;50.984;3.538;2023-12-07T11:03:25;11.75;;;6.32;;
47715;SDS011;33476;50.984;3.538;2023-12-07T11:05:54;11.93;;;6.03;;
47715;SDS011;33476;50.984;3.538;2023-12-07T11:08:33;10.77;;;6.25;;
47715;SDS011;33476;50.984;3.538;2023-12-07T11:13:58;14.05;;;7.03;;
47715;SDS011;33476;50.984;3.538;2023-12-07T11:16:32;17.98;;;6.07;;
47715;SDS011;33476;50.984;3.538;2023-12-07T11:19:00;14.30;;;6.45;;
47715;SDS011;33476;50.984;3.538;2023-12-07T11:21:25;13.27;;;5.93;;
47715;SDS011;33476;50.984;3.538;2023-12-07T11:23:52;10.40;;;5.88;;
47715;SDS011;33476;50.984;3.538;2023-12-07T11:26:19;13.40;;;6.30;;
47715;SDS011;33476;50.984;3.538;2023-12-07T11:28:47;13.65;;;6.53;;
47715;SDS011;33476;50.984;3.538;2023-12-07T11:31:13;14.23;;;6.22;;
47715;SDS011;33476;50.984;3.538;2023-12-07T11:33:38;13.73;;;6.00;;
47715;SDS011;33476;50.984;3.538;2023-12-07T11:36:05;14.98;;;6.65;;
47715;SDS011;33476;50.984;3.538;2023-12-07T11:38:32;11.25;;;6.10;;
47715;SDS011;33476;50.984;3.538;2023-12-07T11:40:58;11.00;;;5.45;;
47715;SDS011;33476;50.984;3.538;2023-12-07T11:46:03;13.05;;;6.35;;
47715;SDS011;33476;50.984;3.538;2023-12-07T11:48:28;10.95;;;5.88;;
47715;SDS011;33476;50.984;3.538;2023-12-07T11:51:01;12.10;;;5.95;;
47715;SDS011;33476;50.984;3.538;2023-12-07T11:53:28;12.32;;;5.78;;
47715;SDS011;33476;50.984;3.538;2023-12-07T11:55:55;15.30;;;6.75;;
47715;SDS011;33476;50.984;3.538;2023-12-07T11:58:23;14.40;;;6.32;;
47715;SDS011;33476;50.984;3.538;2023-12-07T12:00:52;11.18;;;5.03;;
47715;SDS011;33476;50.984;3.538;2023-12-07T12:03:19;12.48;;;5.75;;
47715;SDS011;33476;50.984;3.538;2023-12-07T12:05:45;11.93;;;5.47;;
47715;SDS011;33476;50.984;3.538;2023-12-07T12:08:10;9.43;;;5.63;;
47715;SDS011;33476;50.984;3.538;2023-12-07T12:10:36;10.18;;;6.00;;
47715;SDS011;33476;50.984;3.538;2023-12-07T12:13:05;13.00;;;5.32;;
47715;SDS011;33476;50.984;3.538;2023-12-07T12:15:31;11.20;;;5.35;;
47715;SDS011;33476;50.984;3.538;2023-12-07T12:17:57;10.73;;;5.72;;
47715;SDS011;33476;50.984;3.538;2023-12-07T12:20:26;13.20;;;6.25;;
47715;SDS011;33476;50.984;3.538;2023-12-07T12:22:52;13.50;;;5.32;;
47715;SDS011;33476;50.984;3.538;2023-12-07T12:25:20;10.90;;;5.32;;
47715;SDS011;33476;50.984;3.538;2023-12-07T12:27:54;8.05;;;5.13;;
47715;SDS011;33476;50.984;3.538;2023-12-07T12:30:21;7.55;;;3.88;;
47715;SDS011;33476;50.984;3.538;2023-12-07T12:32:50;12.40;;;5.50;;
47715;SDS011;33476;50.984;3.538;2023-12-07T12:35:19;11.20;;;5.82;;
47715;SDS011;33476;50.984;3.538;2023-12-07T12:37:45;9.85;;;5.35;;
47715;SDS011;33476;50.984;3.538;2023-12-07T12:40:12;9.15;;;5.28;;
47715;SDS011;33476;50.984;3.538;2023-12-07T12:42:43;9.75;;;5.28;;
47715;SDS011;33476;50.984;3.538;2023-12-07T12:45:09;10.73;;;4.82;;
47715;SDS011;33476;50.984;3.538;2023-12-07T12:47:38;8.55;;;4.80;;
47715;SDS011;33476;50.984;3.538;2023-12-07T12:50:05;12.30;;;5.32;;
47715;SDS011;33476;50.984;3.538;2023-12-07T12:52:31;9.10;;;4.70;;
47715;SDS011;33476;50.984;3.538;2023-12-07T12:54:58;8.00;;;4.63;;
47715;SDS011;33476;50.984;3.538;2023-12-07T12:57:23;10.60;;;5.22;;
47715;SDS011;33476;50.984;3.538;2023-12-07T12:59:52;6.15;;;3.97;;
47715;SDS011;33476;50.984;3.538;2023-12-07T13:02:18;9.98;;;4.30;;
47715;SDS011;33476;50.984;3.538;2023-12-07T13:04:44;9.48;;;4.72;;
47715;SDS011;33476;50.984;3.538;2023-12-07T13:07:10;12.13;;;4.57;;
47715;SDS011;33476;50.984;3.538;2023-12-07T13:09:37;12.23;;;4.40;;
47715;SDS011;33476;50.984;3.538;2023-12-07T13:12:03;6.15;;;4.18;;
47715;SDS011;33476;50.984;3.538;2023-12-07T13:14:29;7.55;;;4.72;;
47715;SDS011;33476;50.984;3.538;2023-12-07T13:16:54;7.50;;;4.05;;
47715;SDS011;33476;50.984;3.538;2023-12-07T13:19:20;10.30;;;4.28;;
47715;SDS011;33476;50.984;3.538;2023-12-07T13:21:45;8.32;;;4.05;;
47715;SDS011;33476;50.984;3.538;2023-12-07T13:24:11;11.75;;;4.00;;
47715;SDS011;33476;50.984;3.538;2023-12-07T13:26:40;8.00;;;3.47;;
47715;SDS011;33476;50.984;3.538;2023-12-07T13:29:05;9.95;;;3.95;;
47715;SDS011;33476;50.984;3.538;2023-12-07T13:31:32;5.82;;;3.55;;
47715;SDS011;33476;50.984;3.538;2023-12-07T13:33:59;6.88;;;3.72;;
47715;SDS011;33476;50.984;3.538;2023-12-07T13:36:25;6.15;;;3.60;;
47715;SDS011;33476;50.984;3.538;2023-12-07T13:38:52;8.43;;;3.67;;
47715;SDS011;33476;50.984;3.538;2023-12-07T13:41:17;7.53;;;3.30;;
47715;SDS011;33476;50.984;3.538;2023-12-07T13:43:43;8.75;;;4.07;;
47715;SDS011;33476;50.984;3.538;2023-12-07T13:46:08;6.75;;;3.55;;
47715;SDS011;33476;50.984;3.538;2023-12-07T13:48:35;5.60;;;3.35;;
47715;SDS011;33476;50.984;3.538;2023-12-07T13:51:00;7.70;;;3.42;;
47715;SDS011;33476;50.984;3.538;2023-12-07T13:53:27;6.10;;;3.13;;
47715;SDS011;33476;50.984;3.538;2023-12-07T13:55:52;6.32;;;3.15;;
47715;SDS011;33476;50.984;3.538;2023-12-07T13:58:18;5.70;;;2.90;;
47715;SDS011;33476;50.984;3.538;2023-12-07T14:00:43;8.02;;;2.85;;
47715;SDS011;33476;50.984;3.538;2023-12-07T14:03:10;8.63;;;2.85;;
47715;SDS011;33476;50.984;3.538;2023-12-07T14:05:36;7.63;;;3.45;;
47715;SDS011;33476;50.984;3.538;2023-12-07T14:08:03;5.75;;;2.72;;
47715;SDS011;33476;50.984;3.538;2023-12-07T14:10:28;11.23;;;3.65;;
47715;SDS011;33476;50.984;3.538;2023-12-07T14:12:54;7.32;;;3.47;;
47715;SDS011;33476;50.984;3.538;2023-12-07T14:15:19;8.60;;;4.07;;
47715;SDS011;33476;50.984;3.538;2023-12-07T14:17:44;9.75;;;3.55;;
47715;SDS011;33476;50.984;3.538;2023-12-07T14:20:10;6.68;;;3.38;;
47715;SDS011;33476;50.984;3.538;2023-12-07T14:22:36;5.63;;;2.95;;
47715;SDS011;33476;50.984;3.538;2023-12-07T14:25:03;5.28;;;2.90;;
47715;SDS011;33476;50.984;3.538;2023-12-07T14:27:29;10.02;;;3.35;;
47715;SDS011;33476;50.984;3.538;2023-12-07T14:29:54;5.75;;;3.05;;
47715;SDS011;33476;50.984;3.538;2023-12-07T14:32:20;5.18;;;2.67;;